sensor_id;sensor_type;location;lat;lon;timestamp;pressure;altitude;pressure_sealevel;temperature
14851;BMP180;7517;48.400;11.770;2022-08-21T00:00:26;96543.00;;;22.20
14851;BMP180;7517;48.400;11.770;2022-08-21T00:02:58;96528.00;;;22.20
14851;BMP180;7517;48.400;11.770;2022-08-21T00:05:28;96535.00;;;22.20
14851;BMP180;7517;48.400;11.770;2022-08-21T00:07:56;96532.00;;;22.30
14851;BMP180;7517;48.400;11.770;2022-08-21T00:10:26;96532.00;;;22.30
14851;BMP180;7517;48.400;11.770;2022-08-21T00:12:53;96524.00;;;22.20
14851;BMP180;7517;48.400;11.770;2022-08-21T00:15:24;96520.00;;;22.20
14851;BMP180;7517;48.400;11.770;2022-08-21T00:17:52;96520.00;;;22.20
14851;BMP180;7517;48.400;11.770;2022-08-21T00:20:21;96522.00;;;22.20
14851;BMP180;7517;48.400;11.770;2022-08-21T00:22:50;96518.00;;;22.20
14851;BMP180;7517;48.400;11.770;2022-08-21T00:25:18;96513.00;;;22.20
14851;BMP180;7517;48.400;11.770;2022-08-21T00:27:47;96513.00;;;22.20
14851;BMP180;7517;48.400;11.770;2022-08-21T00:30:17;96502.00;;;22.10
14851;BMP180;7517;48.400;11.770;2022-08-21T00:32:47;96503.00;;;22.10
14851;BMP180;7517;48.400;11.770;2022-08-21T00:35:19;96505.00;;;22.10
14851;BMP180;7517;48.400;11.770;2022-08-21T00:37:49;96501.00;;;22.10
14851;BMP180;7517;48.400;11.770;2022-08-21T00:40:23;96500.00;;;22.10
14851;BMP180;7517;48.400;11.770;2022-08-21T00:42:52;96502.00;;;22.10
14851;BMP180;7517;48.400;11.770;2022-08-21T00:45:20;96499.00;;;22.10
14851;BMP180;7517;48.400;11.770;2022-08-21T00:47:48;96508.00;;;22.00
14851;BMP180;7517;48.400;11.770;2022-08-21T00:50:16;96501.00;;;22.00
14851;BMP180;7517;48.400;11.770;2022-08-21T00:52:45;96496.00;;;22.00
14851;BMP180;7517;48.400;11.770;2022-08-21T00:55:13;96489.00;;;22.00
14851;BMP180;7517;48.400;11.770;2022-08-21T00:57:47;96496.00;;;22.00
14851;BMP180;7517;48.400;11.770;2022-08-21T01:00:22;96496.00;;;22.00
14851;BMP180;7517;48.400;11.770;2022-08-21T01:02:51;96491.00;;;22.00
14851;BMP180;7517;48.400;11.770;2022-08-21T01:05:18;96489.00;;;22.00
14851;BMP180;7517;48.400;11.770;2022-08-21T01:07:45;96495.00;;;21.90
14851;BMP180;7517;48.400;11.770;2022-08-21T01:10:15;96494.00;;;21.90
14851;BMP180;7517;48.400;11.770;2022-08-21T01:12:42;96479.00;;;21.90
14851;BMP180;7517;48.400;11.770;2022-08-21T01:15:12;96486.00;;;21.80
14851;BMP180;7517;48.400;11.770;2022-08-21T01:17:43;96487.00;;;21.80
14851;BMP180;7517;48.400;11.770;2022-08-21T01:20:12;96485.00;;;21.80
14851;BMP180;7517;48.400;11.770;2022-08-21T01:22:43;96473.00;;;21.80
14851;BMP180;7517;48.400;11.770;2022-08-21T01:25:14;96479.00;;;21.70
14851;BMP180;7517;48.400;11.770;2022-08-21T01:27:42;96484.00;;;21.70
14851;BMP180;7517;48.400;11.770;2022-08-21T01:30:16;96480.00;;;21.70
14851;BMP180;7517;48.400;11.770;2022-08-21T01:32:45;96483.00;;;21.60
14851;BMP180;7517;48.400;11.770;2022-08-21T01:35:14;96486.00;;;21.60
14851;BMP180;7517;48.400;11.770;2022-08-21T01:37:44;96480.00;;;21.60
14851;BMP180;7517;48.400;11.770;2022-08-21T01:40:14;96476.00;;;21.60
14851;BMP180;7517;48.400;11.770;2022-08-21T01:42:43;96480.00;;;21.50
14851;BMP180;7517;48.400;11.770;2022-08-21T01:45:13;96479.00;;;21.50
14851;BMP180;7517;48.400;11.770;2022-08-21T01:47:40;96479.00;;;21.50
14851;BMP180;7517;48.400;11.770;2022-08-21T01:50:11;96476.00;;;21.40
14851;BMP180;7517;48.400;11.770;2022-08-21T01:52:40;96480.00;;;21.40
14851;BMP180;7517;48.400;11.770;2022-08-21T01:55:12;96486.00;;;21.40
14851;BMP180;7517;48.400;11.770;2022-08-21T01:57:40;96475.00;;;21.30
14851;BMP180;7517;48.400;11.770;2022-08-21T02:00:12;96474.00;;;21.30
14851;BMP180;7517;48.400;11.770;2022-08-21T02:02:40;96472.00;;;21.30
14851;BMP180;7517;48.400;11.770;2022-08-21T02:05:11;96473.00;;;21.20
14851;BMP180;7517;48.400;11.770;2022-08-21T02:07:43;96471.00;;;21.20
14851;BMP180;7517;48.400;11.770;2022-08-21T02:10:17;96466.00;;;21.20
14851;BMP180;7517;48.400;11.770;2022-08-21T02:12:44;96466.00;;;21.10
14851;BMP180;7517;48.400;11.770;2022-08-21T02:15:13;96463.00;;;21.10
14851;BMP180;7517;48.400;11.770;2022-08-21T02:17:45;96459.00;;;21.10
14851;BMP180;7517;48.400;11.770;2022-08-21T02:20:21;96458.00;;;21.00
14851;BMP180;7517;48.400;11.770;2022-08-21T02:22:49;96468.00;;;21.00
14851;BMP180;7517;48.400;11.770;2022-08-21T02:25:21;96460.00;;;21.00
14851;BMP180;7517;48.400;11.770;2022-08-21T02:27:49;96460.00;;;21.00
14851;BMP180;7517;48.400;11.770;2022-08-21T02:30:23;96463.00;;;21.00
14851;BMP180;7517;48.400;11.770;2022-08-21T02:32:51;96456.00;;;20.90
14851;BMP180;7517;48.400;11.770;2022-08-21T02:35:19;96458.00;;;20.90
14851;BMP180;7517;48.400;11.770;2022-08-21T02:37:49;96457.00;;;20.90
14851;BMP180;7517;48.400;11.770;2022-08-21T02:40:22;96450.00;;;20.80
14851;BMP180;7517;48.400;11.770;2022-08-21T02:42:49;96454.00;;;20.80
14851;BMP180;7517;48.400;11.770;2022-08-21T02:45:17;96456.00;;;20.80
14851;BMP180;7517;48.400;11.770;2022-08-21T02:47:48;96454.00;;;20.80
14851;BMP180;7517;48.400;11.770;2022-08-21T02:50:21;96452.00;;;20.80
14851;BMP180;7517;48.400;11.770;2022-08-21T02:52:49;96453.00;;;20.80
14851;BMP180;7517;48.400;11.770;2022-08-21T02:55:20;96459.00;;;20.80
14851;BMP180;7517;48.400;11.770;2022-08-21T02:57:48;96459.00;;;20.70
14851;BMP180;7517;48.400;11.770;2022-08-21T03:00:16;96455.00;;;20.70
14851;BMP180;7517;48.400;11.770;2022-08-21T03:02:43;96457.00;;;20.70
14851;BMP180;7517;48.400;11.770;2022-08-21T03:05:14;96455.00;;;20.70
14851;BMP180;7517;48.400;11.770;2022-08-21T03:07:42;96455.00;;;20.60
14851;BMP180;7517;48.400;11.770;2022-08-21T03:10:10;96454.00;;;20.60
14851;BMP180;7517;48.400;11.770;2022-08-21T03:12:39;96453.00;;;20.60
14851;BMP180;7517;48.400;11.770;2022-08-21T03:15:14;96453.00;;;20.60
14851;BMP180;7517;48.400;11.770;2022-08-21T03:17:43;96458.00;;;20.60
14851;BMP180;7517;48.400;11.770;2022-08-21T03:20:19;96453.00;;;20.50
14851;BMP180;7517;48.400;11.770;2022-08-21T03:22:49;96455.00;;;20.50
14851;BMP180;7517;48.400;11.770;2022-08-21T03:25:17;96460.00;;;20.50
14851;BMP180;7517;48.400;11.770;2022-08-21T03:27:46;96458.00;;;20.40
14851;BMP180;7517;48.400;11.770;2022-08-21T03:30:16;96458.00;;;20.40
14851;BMP180;7517;48.400;11.770;2022-08-21T03:32:44;96464.00;;;20.40
14851;BMP180;7517;48.400;11.770;2022-08-21T03:35:14;96457.00;;;20.40
14851;BMP180;7517;48.400;11.770;2022-08-21T03:37:42;96460.00;;;20.30
14851;BMP180;7517;48.400;11.770;2022-08-21T03:40:13;96465.00;;;20.30
14851;BMP180;7517;48.400;11.770;2022-08-21T03:42:41;96461.00;;;20.30
14851;BMP180;7517;48.400;11.770;2022-08-21T03:45:10;96471.00;;;20.30
14851;BMP180;7517;48.400;11.770;2022-08-21T03:47:37;96470.00;;;20.20
14851;BMP180;7517;48.400;11.770;2022-08-21T03:50:05;96475.00;;;20.20
14851;BMP180;7517;48.400;11.770;2022-08-21T03:52:33;96478.00;;;20.20
14851;BMP180;7517;48.400;11.770;2022-08-21T03:55:00;96471.00;;;20.20
14851;BMP180;7517;48.400;11.770;2022-08-21T03:57:27;96467.00;;;20.20
14851;BMP180;7517;48.400;11.770;2022-08-21T03:59:55;96474.00;;;20.20
14851;BMP180;7517;48.400;11.770;2022-08-21T04:02:23;96476.00;;;20.20
14851;BMP180;7517;48.400;11.770;2022-08-21T04:04:51;96475.00;;;20.10
14851;BMP180;7517;48.400;11.770;2022-08-21T04:07:18;96479.00;;;20.10
14851;BMP180;7517;48.400;11.770;2022-08-21T04:09:45;96478.00;;;20.10
14851;BMP180;7517;48.400;11.770;2022-08-21T04:12:12;96480.00;;;20.10
14851;BMP180;7517;48.400;11.770;2022-08-21T04:14:39;96480.00;;;20.10
14851;BMP180;7517;48.400;11.770;2022-08-21T04:17:07;96486.00;;;20.00
14851;BMP180;7517;48.400;11.770;2022-08-21T04:19:36;96494.00;;;20.00
14851;BMP180;7517;48.400;11.770;2022-08-21T04:22:03;96483.00;;;20.00
14851;BMP180;7517;48.400;11.770;2022-08-21T04:24:30;96489.00;;;19.90
14851;BMP180;7517;48.400;11.770;2022-08-21T04:26:57;96476.00;;;19.90
14851;BMP180;7517;48.400;11.770;2022-08-21T04:29:24;96489.00;;;19.90
14851;BMP180;7517;48.400;11.770;2022-08-21T04:31:51;96497.00;;;19.90
14851;BMP180;7517;48.400;11.770;2022-08-21T04:34:19;96497.00;;;19.90
14851;BMP180;7517;48.400;11.770;2022-08-21T04:36:47;96498.00;;;19.90
14851;BMP180;7517;48.400;11.770;2022-08-21T04:39:14;96500.00;;;19.80
14851;BMP180;7517;48.400;11.770;2022-08-21T04:41:41;96511.00;;;19.80
14851;BMP180;7517;48.400;11.770;2022-08-21T04:44:08;96515.00;;;19.80
14851;BMP180;7517;48.400;11.770;2022-08-21T04:46:36;96516.00;;;19.80
14851;BMP180;7517;48.400;11.770;2022-08-21T04:49:03;96523.00;;;19.80
14851;BMP180;7517;48.400;11.770;2022-08-21T04:51:35;96519.00;;;19.80
14851;BMP180;7517;48.400;11.770;2022-08-21T04:54:09;96516.00;;;19.80
14851;BMP180;7517;48.400;11.770;2022-08-21T04:56:42;96521.00;;;19.80
14851;BMP180;7517;48.400;11.770;2022-08-21T04:59:16;96516.00;;;19.80
14851;BMP180;7517;48.400;11.770;2022-08-21T05:01:44;96512.00;;;19.80
14851;BMP180;7517;48.400;11.770;2022-08-21T05:04:16;96509.00;;;19.80
14851;BMP180;7517;48.400;11.770;2022-08-21T05:06:47;96517.00;;;19.80
14851;BMP180;7517;48.400;11.770;2022-08-21T05:09:18;96522.00;;;19.80
14851;BMP180;7517;48.400;11.770;2022-08-21T05:11:46;96522.00;;;19.70
14851;BMP180;7517;48.400;11.770;2022-08-21T05:14:14;96530.00;;;19.70
14851;BMP180;7517;48.400;11.770;2022-08-21T05:16:42;96522.00;;;19.70
14851;BMP180;7517;48.400;11.770;2022-08-21T05:19:10;96517.00;;;19.80
14851;BMP180;7517;48.400;11.770;2022-08-21T05:21:42;96516.00;;;19.70
14851;BMP180;7517;48.400;11.770;2022-08-21T05:24:10;96522.00;;;19.80
14851;BMP180;7517;48.400;11.770;2022-08-21T05:26:39;96526.00;;;19.80
14851;BMP180;7517;48.400;11.770;2022-08-21T05:29:07;96528.00;;;19.80
14851;BMP180;7517;48.400;11.770;2022-08-21T05:31:34;96527.00;;;19.80
14851;BMP180;7517;48.400;11.770;2022-08-21T05:34:01;96525.00;;;19.80
14851;BMP180;7517;48.400;11.770;2022-08-21T05:36:29;96535.00;;;19.80
14851;BMP180;7517;48.400;11.770;2022-08-21T05:38:56;96536.00;;;19.80
14851;BMP180;7517;48.400;11.770;2022-08-21T05:41:23;96537.00;;;19.80
14851;BMP180;7517;48.400;11.770;2022-08-21T05:43:52;96537.00;;;19.80
14851;BMP180;7517;48.400;11.770;2022-08-21T05:46:19;96540.00;;;19.80
14851;BMP180;7517;48.400;11.770;2022-08-21T05:48:46;96540.00;;;19.80
14851;BMP180;7517;48.400;11.770;2022-08-21T05:51:15;96535.00;;;19.90
14851;BMP180;7517;48.400;11.770;2022-08-21T05:53:44;96537.00;;;19.90
14851;BMP180;7517;48.400;11.770;2022-08-21T05:56:12;96543.00;;;19.90
14851;BMP180;7517;48.400;11.770;2022-08-21T05:58:40;96536.00;;;19.90
14851;BMP180;7517;48.400;11.770;2022-08-21T06:01:10;96534.00;;;20.00
14851;BMP180;7517;48.400;11.770;2022-08-21T06:03:41;96543.00;;;20.00
14851;BMP180;7517;48.400;11.770;2022-08-21T06:06:08;96537.00;;;20.00
14851;BMP180;7517;48.400;11.770;2022-08-21T06:08:36;96538.00;;;20.00
14851;BMP180;7517;48.400;11.770;2022-08-21T06:11:05;96535.00;;;20.10
14851;BMP180;7517;48.400;11.770;2022-08-21T06:13:33;96532.00;;;20.10
14851;BMP180;7517;48.400;11.770;2022-08-21T06:16:05;96536.00;;;20.20
14851;BMP180;7517;48.400;11.770;2022-08-21T06:18:35;96528.00;;;20.20
14851;BMP180;7517;48.400;11.770;2022-08-21T06:21:03;96540.00;;;20.20
14851;BMP180;7517;48.400;11.770;2022-08-21T06:23:31;96544.00;;;20.20
14851;BMP180;7517;48.400;11.770;2022-08-21T06:25:58;96545.00;;;20.30
14851;BMP180;7517;48.400;11.770;2022-08-21T06:28:26;96533.00;;;20.30
14851;BMP180;7517;48.400;11.770;2022-08-21T06:30:53;96541.00;;;20.40
14851;BMP180;7517;48.400;11.770;2022-08-21T06:33:21;96535.00;;;20.40
14851;BMP180;7517;48.400;11.770;2022-08-21T06:35:50;96541.00;;;20.40
14851;BMP180;7517;48.400;11.770;2022-08-21T06:38:17;96547.00;;;20.50
14851;BMP180;7517;48.400;11.770;2022-08-21T06:40:45;96542.00;;;20.50
14851;BMP180;7517;48.400;11.770;2022-08-21T06:43:16;96543.00;;;20.50
14851;BMP180;7517;48.400;11.770;2022-08-21T06:45:44;96536.00;;;20.60
14851;BMP180;7517;48.400;11.770;2022-08-21T06:48:11;96530.00;;;20.60
14851;BMP180;7517;48.400;11.770;2022-08-21T06:50:38;96535.00;;;20.70
14851;BMP180;7517;48.400;11.770;2022-08-21T06:53:11;96524.00;;;20.70
14851;BMP180;7517;48.400;11.770;2022-08-21T06:55:39;96531.00;;;20.80
14851;BMP180;7517;48.400;11.770;2022-08-21T06:58:09;96530.00;;;20.80
14851;BMP180;7517;48.400;11.770;2022-08-21T07:00:39;96527.00;;;20.90
14851;BMP180;7517;48.400;11.770;2022-08-21T07:03:06;96524.00;;;20.90
14851;BMP180;7517;48.400;11.770;2022-08-21T07:05:33;96532.00;;;20.90
14851;BMP180;7517;48.400;11.770;2022-08-21T07:08:01;96526.00;;;21.00
14851;BMP180;7517;48.400;11.770;2022-08-21T07:10:30;96525.00;;;21.00
14851;BMP180;7517;48.400;11.770;2022-08-21T07:12:57;96530.00;;;21.10
14851;BMP180;7517;48.400;11.770;2022-08-21T07:15:24;96535.00;;;21.20
14851;BMP180;7517;48.400;11.770;2022-08-21T07:17:51;96530.00;;;21.30
14851;BMP180;7517;48.400;11.770;2022-08-21T07:20:19;96534.00;;;21.50
14851;BMP180;7517;48.400;11.770;2022-08-21T07:22:46;96530.00;;;21.60
14851;BMP180;7517;48.400;11.770;2022-08-21T07:25:13;96532.00;;;21.70
14851;BMP180;7517;48.400;11.770;2022-08-21T07:27:42;96521.00;;;21.90
14851;BMP180;7517;48.400;11.770;2022-08-21T07:30:10;96527.00;;;22.00
14851;BMP180;7517;48.400;11.770;2022-08-21T07:32:37;96525.00;;;22.10
14851;BMP180;7517;48.400;11.770;2022-08-21T07:35:05;96528.00;;;22.30
14851;BMP180;7517;48.400;11.770;2022-08-21T07:37:33;96527.00;;;22.40
14851;BMP180;7517;48.400;11.770;2022-08-21T07:40:00;96529.00;;;22.50
14851;BMP180;7517;48.400;11.770;2022-08-21T07:42:28;96533.00;;;22.70
14851;BMP180;7517;48.400;11.770;2022-08-21T07:44:57;96523.00;;;22.80
14851;BMP180;7517;48.400;11.770;2022-08-21T07:47:24;96531.00;;;22.90
14851;BMP180;7517;48.400;11.770;2022-08-21T07:49:51;96522.00;;;23.00
14851;BMP180;7517;48.400;11.770;2022-08-21T07:52:18;96529.00;;;23.20
14851;BMP180;7517;48.400;11.770;2022-08-21T07:54:46;96527.00;;;23.30
14851;BMP180;7517;48.400;11.770;2022-08-21T07:57:13;96526.00;;;23.40
14851;BMP180;7517;48.400;11.770;2022-08-21T07:59:41;96525.00;;;23.50
14851;BMP180;7517;48.400;11.770;2022-08-21T08:02:10;96518.00;;;23.60
14851;BMP180;7517;48.400;11.770;2022-08-21T08:04:47;96531.00;;;23.70
14851;BMP180;7517;48.400;11.770;2022-08-21T08:07:15;96529.00;;;23.80
14851;BMP180;7517;48.400;11.770;2022-08-21T08:09:42;96532.00;;;23.90
14851;BMP180;7517;48.400;11.770;2022-08-21T08:12:09;96531.00;;;24.00
14851;BMP180;7517;48.400;11.770;2022-08-21T08:14:36;96525.00;;;24.20
14851;BMP180;7517;48.400;11.770;2022-08-21T08:17:04;96527.00;;;24.30
14851;BMP180;7517;48.400;11.770;2022-08-21T08:19:32;96532.00;;;24.40
14851;BMP180;7517;48.400;11.770;2022-08-21T08:22:00;96529.00;;;24.50
14851;BMP180;7517;48.400;11.770;2022-08-21T08:24:27;96527.00;;;24.70
14851;BMP180;7517;48.400;11.770;2022-08-21T08:26:54;96529.00;;;24.70
14851;BMP180;7517;48.400;11.770;2022-08-21T08:29:22;96536.00;;;24.90
14851;BMP180;7517;48.400;11.770;2022-08-21T08:31:50;96522.00;;;25.00
14851;BMP180;7517;48.400;11.770;2022-08-21T08:34:17;96536.00;;;25.10
14851;BMP180;7517;48.400;11.770;2022-08-21T08:36:46;96523.00;;;25.30
14851;BMP180;7517;48.400;11.770;2022-08-21T08:39:14;96525.00;;;25.40
14851;BMP180;7517;48.400;11.770;2022-08-21T08:41:43;96521.00;;;25.50
14851;BMP180;7517;48.400;11.770;2022-08-21T08:44:12;96529.00;;;25.60
14851;BMP180;7517;48.400;11.770;2022-08-21T08:46:44;96522.00;;;25.70
14851;BMP180;7517;48.400;11.770;2022-08-21T08:49:19;96530.00;;;25.70
14851;BMP180;7517;48.400;11.770;2022-08-21T08:51:55;96533.00;;;25.70
14851;BMP180;7517;48.400;11.770;2022-08-21T08:54:32;96531.00;;;25.70
14851;BMP180;7517;48.400;11.770;2022-08-21T08:57:02;96531.00;;;25.80
14851;BMP180;7517;48.400;11.770;2022-08-21T08:59:39;96528.00;;;25.90
14851;BMP180;7517;48.400;11.770;2022-08-21T09:02:07;96530.00;;;26.00
14851;BMP180;7517;48.400;11.770;2022-08-21T09:04:36;96534.00;;;26.00
14851;BMP180;7517;48.400;11.770;2022-08-21T09:07:16;96534.00;;;26.00
14851;BMP180;7517;48.400;11.770;2022-08-21T09:10:03;96536.00;;;26.10
14851;BMP180;7517;48.400;11.770;2022-08-21T09:12:51;96539.00;;;26.20
14851;BMP180;7517;48.400;11.770;2022-08-21T09:15:30;96538.00;;;26.20
14851;BMP180;7517;48.400;11.770;2022-08-21T09:18:24;96529.00;;;26.20
14851;BMP180;7517;48.400;11.770;2022-08-21T09:21:09;96535.00;;;26.20
14851;BMP180;7517;48.400;11.770;2022-08-21T09:23:52;96531.00;;;26.20
14851;BMP180;7517;48.400;11.770;2022-08-21T09:26:24;96531.00;;;26.30
14851;BMP180;7517;48.400;11.770;2022-08-21T09:28:56;96522.00;;;26.30
14851;BMP180;7517;48.400;11.770;2022-08-21T09:31:28;96519.00;;;26.40
14851;BMP180;7517;48.400;11.770;2022-08-21T09:34:01;96531.00;;;26.50
14851;BMP180;7517;48.400;11.770;2022-08-21T09:36:37;96528.00;;;26.70
14851;BMP180;7517;48.400;11.770;2022-08-21T09:39:07;96529.00;;;26.70
14851;BMP180;7517;48.400;11.770;2022-08-21T09:41:36;96527.00;;;26.80
14851;BMP180;7517;48.400;11.770;2022-08-21T09:44:07;96522.00;;;26.90
14851;BMP180;7517;48.400;11.770;2022-08-21T09:46:34;96531.00;;;27.00
14851;BMP180;7517;48.400;11.770;2022-08-21T09:49:04;96527.00;;;27.20
14851;BMP180;7517;48.400;11.770;2022-08-21T09:51:36;96523.00;;;27.30
14851;BMP180;7517;48.400;11.770;2022-08-21T09:54:17;96525.00;;;27.30
14851;BMP180;7517;48.400;11.770;2022-08-21T09:56:57;96525.00;;;27.20
14851;BMP180;7517;48.400;11.770;2022-08-21T09:59:44;96527.00;;;27.30
14851;BMP180;7517;48.400;11.770;2022-08-21T10:02:26;96522.00;;;27.40
14851;BMP180;7517;48.400;11.770;2022-08-21T10:04:57;96517.00;;;27.60
14851;BMP180;7517;48.400;11.770;2022-08-21T10:07:30;96514.00;;;27.70
14851;BMP180;7517;48.400;11.770;2022-08-21T10:10:04;96523.00;;;27.90
14851;BMP180;7517;48.400;11.770;2022-08-21T10:12:44;96515.00;;;27.90
14851;BMP180;7517;48.400;11.770;2022-08-21T10:15:22;96515.00;;;27.90
14851;BMP180;7517;48.400;11.770;2022-08-21T10:18:02;96517.00;;;27.80
14851;BMP180;7517;48.400;11.770;2022-08-21T10:20:40;96517.00;;;27.60
14851;BMP180;7517;48.400;11.770;2022-08-21T10:23:29;96517.00;;;27.50
14851;BMP180;7517;48.400;11.770;2022-08-21T10:26:22;96509.00;;;27.40
14851;BMP180;7517;48.400;11.770;2022-08-21T10:29:03;96511.00;;;27.50
14851;BMP180;7517;48.400;11.770;2022-08-21T10:31:43;96513.00;;;27.60
14851;BMP180;7517;48.400;11.770;2022-08-21T10:34:26;96511.00;;;27.70
14851;BMP180;7517;48.400;11.770;2022-08-21T10:37:11;96514.00;;;27.90
14851;BMP180;7517;48.400;11.770;2022-08-21T10:40:00;96512.00;;;28.00
14851;BMP180;7517;48.400;11.770;2022-08-21T10:42:41;96510.00;;;28.10
14851;BMP180;7517;48.400;11.770;2022-08-21T10:45:42;96508.00;;;28.20
14851;BMP180;7517;48.400;11.770;2022-08-21T10:48:24;96510.00;;;28.30
14851;BMP180;7517;48.400;11.770;2022-08-21T10:50:59;96514.00;;;28.30
14851;BMP180;7517;48.400;11.770;2022-08-21T10:53:51;96506.00;;;28.20
14851;BMP180;7517;48.400;11.770;2022-08-21T10:56:24;96506.00;;;28.10
14851;BMP180;7517;48.400;11.770;2022-08-21T10:59:23;96520.00;;;27.90
14851;BMP180;7517;48.400;11.770;2022-08-21T11:02:00;96509.00;;;27.70
14851;BMP180;7517;48.400;11.770;2022-08-21T11:04:36;96506.00;;;27.60
14851;BMP180;7517;48.400;11.770;2022-08-21T11:07:15;96505.00;;;27.40
14851;BMP180;7517;48.400;11.770;2022-08-21T11:09:48;96511.00;;;27.30
14851;BMP180;7517;48.400;11.770;2022-08-21T11:12:24;96506.00;;;27.20
14851;BMP180;7517;48.400;11.770;2022-08-21T11:15:01;96494.00;;;27.10
14851;BMP180;7517;48.400;11.770;2022-08-21T11:17:43;96488.00;;;27.00
14851;BMP180;7517;48.400;11.770;2022-08-21T11:20:19;96484.00;;;26.90
14851;BMP180;7517;48.400;11.770;2022-08-21T11:22:56;96483.00;;;26.90
14851;BMP180;7517;48.400;11.770;2022-08-21T11:25:33;96483.00;;;26.80
14851;BMP180;7517;48.400;11.770;2022-08-21T11:28:06;96484.00;;;26.80
14851;BMP180;7517;48.400;11.770;2022-08-21T11:30:52;96487.00;;;26.80
14851;BMP180;7517;48.400;11.770;2022-08-21T11:33:40;96488.00;;;26.70
14851;BMP180;7517;48.400;11.770;2022-08-21T11:36:23;96479.00;;;26.70
14851;BMP180;7517;48.400;11.770;2022-08-21T11:39:02;96474.00;;;26.60
14851;BMP180;7517;48.400;11.770;2022-08-21T11:41:37;96470.00;;;26.50
14851;BMP180;7517;48.400;11.770;2022-08-21T11:44:18;96473.00;;;26.50
14851;BMP180;7517;48.400;11.770;2022-08-21T11:47:04;96474.00;;;26.40
14851;BMP180;7517;48.400;11.770;2022-08-21T11:49:49;96457.00;;;26.40
14851;BMP180;7517;48.400;11.770;2022-08-21T11:52:25;96463.00;;;26.50
14851;BMP180;7517;48.400;11.770;2022-08-21T11:54:58;96459.00;;;26.50
14851;BMP180;7517;48.400;11.770;2022-08-21T11:57:37;96460.00;;;26.50
14851;BMP180;7517;48.400;11.770;2022-08-21T12:00:16;96463.00;;;26.40
14851;BMP180;7517;48.400;11.770;2022-08-21T12:02:52;96460.00;;;26.40
14851;BMP180;7517;48.400;11.770;2022-08-21T12:05:31;96454.00;;;26.40
14851;BMP180;7517;48.400;11.770;2022-08-21T12:08:07;96453.00;;;26.40
14851;BMP180;7517;48.400;11.770;2022-08-21T12:10:40;96452.00;;;26.40
14851;BMP180;7517;48.400;11.770;2022-08-21T12:13:20;96457.00;;;26.50
14851;BMP180;7517;48.400;11.770;2022-08-21T12:15:48;96452.00;;;26.50
14851;BMP180;7517;48.400;11.770;2022-08-21T12:18:29;96453.00;;;26.50
14851;BMP180;7517;48.400;11.770;2022-08-21T12:21:05;96448.00;;;26.50
14851;BMP180;7517;48.400;11.770;2022-08-21T12:23:48;96443.00;;;26.50
14851;BMP180;7517;48.400;11.770;2022-08-21T12:26:26;96444.00;;;26.50
14851;BMP180;7517;48.400;11.770;2022-08-21T12:29:12;96441.00;;;26.50
14851;BMP180;7517;48.400;11.770;2022-08-21T12:31:52;96434.00;;;26.40
14851;BMP180;7517;48.400;11.770;2022-08-21T12:34:27;96434.00;;;26.50
14851;BMP180;7517;48.400;11.770;2022-08-21T12:37:00;96436.00;;;26.40
14851;BMP180;7517;48.400;11.770;2022-08-21T12:39:31;96426.00;;;26.40
14851;BMP180;7517;48.400;11.770;2022-08-21T12:42:06;96420.00;;;26.40
14851;BMP180;7517;48.400;11.770;2022-08-21T12:44:41;96426.00;;;26.40
14851;BMP180;7517;48.400;11.770;2022-08-21T12:47:16;96419.00;;;26.40
14851;BMP180;7517;48.400;11.770;2022-08-21T12:49:54;96414.00;;;26.40
14851;BMP180;7517;48.400;11.770;2022-08-21T12:52:30;96410.00;;;26.40
14851;BMP180;7517;48.400;11.770;2022-08-21T12:54:59;96412.00;;;26.40
14851;BMP180;7517;48.400;11.770;2022-08-21T12:57:29;96406.00;;;26.40
14851;BMP180;7517;48.400;11.770;2022-08-21T13:00:00;96413.00;;;26.50
14851;BMP180;7517;48.400;11.770;2022-08-21T13:02:33;96404.00;;;26.50
14851;BMP180;7517;48.400;11.770;2022-08-21T13:05:08;96398.00;;;26.50
14851;BMP180;7517;48.400;11.770;2022-08-21T13:07:44;96401.00;;;26.50
14851;BMP180;7517;48.400;11.770;2022-08-21T13:10:21;96398.00;;;26.50
14851;BMP180;7517;48.400;11.770;2022-08-21T13:12:49;96390.00;;;26.50
14851;BMP180;7517;48.400;11.770;2022-08-21T13:15:25;96395.00;;;26.50
14851;BMP180;7517;48.400;11.770;2022-08-21T13:17:53;96394.00;;;26.50
14851;BMP180;7517;48.400;11.770;2022-08-21T13:20:32;96402.00;;;26.50
14851;BMP180;7517;48.400;11.770;2022-08-21T13:23:03;96389.00;;;26.50
14851;BMP180;7517;48.400;11.770;2022-08-21T13:25:36;96396.00;;;26.50
14851;BMP180;7517;48.400;11.770;2022-08-21T13:28:07;96389.00;;;26.50
14851;BMP180;7517;48.400;11.770;2022-08-21T13:30:42;96390.00;;;26.40
14851;BMP180;7517;48.400;11.770;2022-08-21T13:33:21;96389.00;;;26.40
14851;BMP180;7517;48.400;11.770;2022-08-21T13:36:04;96384.00;;;26.50
14851;BMP180;7517;48.400;11.770;2022-08-21T13:38:35;96386.00;;;26.50
14851;BMP180;7517;48.400;11.770;2022-08-21T13:41:10;96382.00;;;26.50
14851;BMP180;7517;48.400;11.770;2022-08-21T13:43:38;96378.00;;;26.50
14851;BMP180;7517;48.400;11.770;2022-08-21T13:46:14;96374.00;;;26.50
14851;BMP180;7517;48.400;11.770;2022-08-21T13:48:42;96378.00;;;26.50
14851;BMP180;7517;48.400;11.770;2022-08-21T13:51:11;96372.00;;;26.60
14851;BMP180;7517;48.400;11.770;2022-08-21T13:53:48;96371.00;;;26.60
14851;BMP180;7517;48.400;11.770;2022-08-21T13:56:28;96370.00;;;26.60
14851;BMP180;7517;48.400;11.770;2022-08-21T13:58:59;96371.00;;;26.60
14851;BMP180;7517;48.400;11.770;2022-08-21T14:01:30;96371.00;;;26.60
14851;BMP180;7517;48.400;11.770;2022-08-21T14:04:04;96371.00;;;26.60
14851;BMP180;7517;48.400;11.770;2022-08-21T14:06:37;96366.00;;;26.70
14851;BMP180;7517;48.400;11.770;2022-08-21T14:09:11;96367.00;;;26.70
14851;BMP180;7517;48.400;11.770;2022-08-21T14:11:39;96368.00;;;26.70
14851;BMP180;7517;48.400;11.770;2022-08-21T14:14:23;96370.00;;;26.70
14851;BMP180;7517;48.400;11.770;2022-08-21T14:16:56;96371.00;;;26.70
14851;BMP180;7517;48.400;11.770;2022-08-21T14:19:27;96371.00;;;26.70
14851;BMP180;7517;48.400;11.770;2022-08-21T14:21:55;96367.00;;;26.80
14851;BMP180;7517;48.400;11.770;2022-08-21T14:24:29;96375.00;;;26.80
14851;BMP180;7517;48.400;11.770;2022-08-21T14:27:03;96381.00;;;26.80
14851;BMP180;7517;48.400;11.770;2022-08-21T14:29:37;96368.00;;;26.80
14851;BMP180;7517;48.400;11.770;2022-08-21T14:32:13;96367.00;;;26.80
14851;BMP180;7517;48.400;11.770;2022-08-21T14:34:41;96366.00;;;26.90